createdAt,value
2023-04-23T00:01:35.523Z,5.59
2023-04-23T00:04:09.836Z,5.55
2023-04-23T00:06:58.494Z,5.54
2023-04-23T00:09:34.850Z,5.54
2023-04-23T00:12:21.482Z,5.56
2023-04-23T00:14:54.605Z,5.55
2023-04-23T00:17:41.545Z,5.54
2023-04-23T00:20:16.398Z,5.50
2023-04-23T00:23:03.489Z,5.47
2023-04-23T00:25:43.497Z,5.49
2023-04-23T00:28:37.537Z,5.50
2023-04-23T00:31:24.517Z,5.53
2023-04-23T00:33:57.600Z,5.58
2023-04-23T00:36:44.502Z,5.58
2023-04-23T00:39:17.602Z,5.62
2023-04-23T00:42:05.511Z,5.65
2023-04-23T00:44:45.505Z,5.68
2023-04-23T00:47:32.514Z,5.72
2023-04-23T00:50:13.556Z,5.73
2023-04-23T00:53:07.487Z,5.70
2023-04-23T00:55:54.539Z,5.64
2023-04-23T00:58:28.628Z,5.63
2023-04-23T01:01:16.536Z,5.60
2023-04-23T01:03:56.652Z,5.58
2023-04-23T01:06:46.512Z,5.56
2023-04-23T01:09:27.520Z,5.54
2023-04-23T01:12:23.518Z,5.48
2023-04-23T01:15:11.521Z,5.39
2023-04-23T01:17:45.082Z,5.37
2023-04-23T01:20:31.550Z,5.33
2023-04-23T01:23:04.701Z,5.29
2023-04-23T01:25:51.510Z,5.20
2023-04-23T01:28:25.823Z,5.12
2023-04-23T01:31:21.568Z,5.08
2023-04-23T01:34:15.697Z,5.00
2023-04-23T01:37:10.520Z,4.96
2023-04-23T01:39:58.505Z,4.91
2023-04-23T01:42:31.626Z,4.86
2023-04-23T01:45:18.573Z,4.79
2023-04-23T01:47:52.731Z,4.74
2023-04-23T01:50:39.528Z,4.70
2023-04-23T01:53:12.722Z,4.67
2023-04-23T01:56:01.547Z,4.62
2023-04-23T01:58:37.481Z,4.58
2023-04-23T02:01:24.583Z,4.53
2023-04-23T02:03:59.062Z,4.55
2023-04-23T02:06:46.553Z,4.53
2023-04-23T02:09:19.637Z,4.49
2023-04-23T02:12:06.511Z,4.48
2023-04-23T02:14:39.880Z,4.48
2023-04-23T02:17:29.613Z,4.46
2023-04-23T02:20:02.753Z,4.44
2023-04-23T02:22:49.618Z,4.44
2023-04-23T02:25:30.532Z,4.41
2023-04-23T02:28:20.550Z,4.37
2023-04-23T02:31:00.543Z,4.37
2023-04-23T02:33:49.552Z,4.36
2023-04-23T02:36:22.709Z,4.35
2023-04-23T02:39:09.612Z,4.36
2023-04-23T02:41:49.549Z,4.33
2023-04-23T02:44:36.546Z,4.27
2023-04-23T02:47:16.554Z,4.26
2023-04-23T02:50:09.560Z,4.19
2023-04-23T02:52:49.604Z,4.13
2023-04-23T02:55:43.562Z,4.08
2023-04-23T02:58:31.608Z,4.03
2023-04-23T03:01:11.652Z,3.98
2023-04-23T03:04:05.642Z,3.93
2023-04-23T03:06:52.548Z,3.91
2023-04-23T03:09:32.545Z,3.88
2023-04-23T03:12:19.607Z,3.87
2023-04-23T03:14:59.602Z,3.88
2023-04-23T03:17:46.624Z,3.87
2023-04-23T03:20:20.675Z,3.81
2023-04-23T03:23:07.555Z,3.78
2023-04-23T03:25:42.576Z,3.73
2023-04-23T03:28:29.557Z,3.67
2023-04-23T03:31:09.612Z,3.66
2023-04-23T03:33:56.554Z,3.64
2023-04-23T03:36:36.572Z,3.62
2023-04-23T03:39:30.586Z,3.58
2023-04-23T03:42:17.557Z,3.54
2023-04-23T03:44:50.957Z,3.54
2023-04-23T03:47:37.631Z,3.53
2023-04-23T03:50:13.350Z,3.52
2023-04-23T03:53:00.578Z,3.50
2023-04-23T03:55:33.676Z,3.51
2023-04-23T03:58:20.598Z,3.52
2023-04-23T04:00:54.450Z,3.52
2023-04-23T04:03:41.782Z,3.54
2023-04-23T04:06:15.782Z,3.55
2023-04-23T04:09:02.661Z,3.60
2023-04-23T04:11:35.788Z,3.60
2023-04-23T04:14:22.583Z,3.62
2023-04-23T04:16:56.908Z,3.68
2023-04-23T04:19:43.583Z,3.73
2023-04-23T04:22:16.753Z,3.77
2023-04-23T04:25:19.589Z,3.78
2023-04-23T04:28:06.595Z,3.80
2023-04-23T04:30:42.602Z,3.82
2023-04-23T04:33:29.586Z,3.81
2023-04-23T04:36:03.734Z,3.85
2023-04-23T04:38:50.596Z,3.89
2023-04-23T04:41:32.613Z,3.92
2023-04-23T04:44:26.615Z,3.98
2023-04-23T04:47:20.602Z,4.05
2023-04-23T04:50:07.623Z,4.22
2023-04-23T04:52:40.858Z,4.39
2023-04-23T04:55:20.678Z,4.63
2023-04-23T04:58:00.590Z,4.88
2023-04-23T05:00:42.635Z,5.12
2023-04-23T05:03:36.748Z,5.39
2023-04-23T05:06:23.603Z,5.68
2023-04-23T05:08:56.990Z,5.88
2023-04-23T05:11:43.598Z,6.14
2023-04-23T05:14:23.605Z,6.36
2023-04-23T05:17:13.609Z,6.61
2023-04-23T05:19:53.613Z,6.83
2023-04-23T05:22:40.669Z,7.09
2023-04-23T05:25:22.664Z,7.31
2023-04-23T05:28:09.634Z,7.48
2023-04-23T05:30:49.622Z,7.67
2023-04-23T05:33:49.875Z,7.90
2023-04-23T05:36:38.661Z,8.07
2023-04-23T05:39:18.599Z,8.25
2023-04-23T05:42:05.626Z,8.42
2023-04-23T05:44:45.598Z,8.55
2023-04-23T05:47:32.686Z,8.68
2023-04-23T05:50:05.763Z,8.80
2023-04-23T05:52:52.608Z,8.94
2023-04-23T05:55:26.847Z,9.15
2023-04-23T05:58:13.618Z,9.31
2023-04-23T06:00:46.862Z,9.52
2023-04-23T06:03:33.803Z,9.63
2023-04-23T06:06:07.824Z,9.81
2023-04-23T06:08:54.654Z,9.97
2023-04-23T06:11:30.441Z,10.19
2023-04-23T06:14:17.653Z,10.38
2023-04-23T06:16:57.655Z,10.70
2023-04-23T06:19:51.650Z,10.94
2023-04-23T06:22:39.675Z,11.13
2023-04-23T06:25:12.786Z,11.23
2023-04-23T06:27:59.675Z,11.43
2023-04-23T06:30:32.751Z,11.70
2023-04-23T06:33:19.697Z,11.96
2023-04-23T06:35:52.783Z,12.16
2023-04-23T06:38:39.640Z,12.45
2023-04-23T06:41:15.538Z,12.71
2023-04-23T06:44:02.655Z,13.04
2023-04-23T06:46:35.880Z,13.31
2023-04-23T06:49:25.057Z,13.57
2023-04-23T06:52:05.606Z,13.83
2023-04-23T06:54:59.664Z,14.16
2023-04-23T06:57:48.659Z,14.36
2023-04-23T07:00:21.791Z,14.54
2023-04-23T07:03:08.885Z,14.71
2023-04-23T07:05:42.799Z,14.93
2023-04-23T07:08:29.682Z,15.21
2023-04-23T07:11:02.829Z,15.47
2023-04-23T07:13:49.690Z,15.74
2023-04-23T07:16:30.701Z,15.87
2023-04-23T07:19:24.688Z,16.25
2023-04-23T07:22:11.704Z,16.49
2023-04-23T07:24:44.763Z,16.81
2023-04-23T07:27:31.707Z,17.19
2023-04-23T07:30:11.737Z,17.54
2023-04-23T07:33:05.773Z,17.80
2023-04-23T07:35:59.729Z,18.08
2023-04-23T07:38:46.691Z,18.31
2023-04-23T07:41:19.832Z,18.46
2023-04-23T07:44:06.692Z,18.74
2023-04-23T07:46:46.701Z,18.92
2023-04-23T07:49:40.820Z,19.13
2023-04-23T07:52:34.697Z,19.46
2023-04-23T07:55:28.687Z,19.67
2023-04-23T07:58:15.789Z,19.79
2023-04-23T08:00:48.851Z,19.93
2023-04-23T08:03:35.821Z,20.20
2023-04-23T08:06:09.858Z,20.41
2023-04-23T08:08:56.705Z,20.68
2023-04-23T08:11:29.934Z,20.92
2023-04-23T08:14:16.709Z,21.10
2023-04-23T08:16:49.807Z,21.42
2023-04-23T08:19:39.955Z,21.88
2023-04-23T08:22:22.065Z,22.31
2023-04-23T08:25:08.800Z,22.49
2023-04-23T08:27:41.896Z,22.67
2023-04-23T08:30:28.773Z,22.55
2023-04-23T08:33:01.871Z,22.79
2023-04-23T08:35:48.701Z,23.09
2023-04-23T08:38:21.840Z,23.11
2023-04-23T08:41:12.698Z,23.34
2023-04-23T08:43:55.974Z,23.48
2023-04-23T08:46:43.850Z,23.51
2023-04-23T08:49:24.937Z,23.74
2023-04-23T08:52:32.776Z,24.00
2023-04-23T08:55:16.786Z,24.23
2023-04-23T08:58:04.772Z,24.48
2023-04-23T09:00:39.035Z,24.66
2023-04-23T09:03:27.936Z,24.78
2023-04-23T09:06:02.925Z,25.00
2023-04-23T09:08:51.738Z,24.96
2023-04-23T09:11:32.778Z,25.12
2023-04-23T09:14:20.777Z,25.34
2023-04-23T09:16:54.051Z,25.55
2023-04-23T09:19:42.940Z,25.40
2023-04-23T09:22:16.857Z,24.57
2023-04-23T09:25:03.805Z,24.16
2023-04-23T09:27:45.842Z,23.81
2023-04-23T09:30:33.802Z,23.94
2023-04-23T09:33:13.797Z,24.38
2023-04-23T09:35:55.826Z,24.86
2023-04-23T09:38:35.790Z,25.10
2023-04-23T09:41:44.777Z,25.48
2023-04-23T09:44:39.808Z,25.54
2023-04-23T09:47:34.796Z,25.57
2023-04-23T09:50:29.816Z,25.81
2023-04-23T09:53:16.778Z,25.84
2023-04-23T09:55:52.863Z,26.04
2023-04-23T09:58:39.833Z,26.29
2023-04-23T10:01:15.972Z,25.95
2023-04-23T10:04:06.131Z,25.05
2023-04-23T10:06:47.030Z,24.96
2023-04-23T10:09:40.024Z,25.13
2023-04-23T10:12:41.074Z,25.46
2023-04-23T10:15:40.834Z,25.54
2023-04-23T10:18:27.851Z,25.46
2023-04-23T10:21:00.895Z,25.05
2023-04-23T10:23:50.827Z,24.44
2023-04-23T10:26:30.029Z,23.75
2023-04-23T10:29:24.820Z,23.25
2023-04-23T10:32:00.035Z,22.92
2023-04-23T10:34:47.939Z,23.11
2023-04-23T10:37:28.834Z,23.00
2023-04-23T10:40:27.828Z,22.55
2023-04-23T10:43:14.816Z,22.20
2023-04-23T10:45:54.828Z,22.12
2023-04-23T10:49:27.802Z,21.81
2023-04-23T10:52:28.846Z,21.51
2023-04-23T10:55:23.820Z,21.33
2023-04-23T10:58:13.960Z,21.34
2023-04-23T11:01:03.126Z,21.51
2023-04-23T11:03:53.998Z,21.48
2023-04-23T11:07:03.038Z,21.26
2023-04-23T11:09:52.972Z,21.00
2023-04-23T11:12:35.025Z,20.84
2023-04-23T11:15:26.904Z,20.71
2023-04-23T11:18:00.055Z,20.61
2023-04-23T11:20:47.827Z,20.48
2023-04-23T11:23:37.074Z,20.51
2023-04-23T11:26:24.861Z,20.84
2023-04-23T11:29:00.049Z,20.82
2023-04-23T11:32:02.225Z,20.76
2023-04-23T11:34:59.916Z,20.58
2023-04-23T11:37:48.944Z,20.38
2023-04-23T11:40:32.869Z,20.30
2023-04-23T11:43:25.852Z,20.58
2023-04-23T11:46:05.918Z,21.23
2023-04-23T11:48:52.885Z,21.49
2023-04-23T11:51:39.836Z,21.39
2023-04-23T11:54:33.949Z,21.01
2023-04-23T11:57:08.542Z,21.20
2023-04-23T11:59:54.893Z,21.61
2023-04-23T12:02:31.058Z,21.50
2023-04-23T12:05:17.891Z,21.23
2023-04-23T12:07:55.010Z,21.01
2023-04-23T12:10:48.877Z,20.74
2023-04-23T12:13:35.785Z,20.60
2023-04-23T12:16:22.912Z,20.39
2023-04-23T12:19:01.123Z,20.39
2023-04-23T12:22:02.906Z,20.36
2023-04-23T12:25:02.875Z,20.30
2023-04-23T12:27:58.882Z,20.38
2023-04-23T12:30:57.893Z,20.57
2023-04-23T12:33:51.928Z,20.62
2023-04-23T12:36:47.856Z,20.53
2023-04-23T12:39:44.987Z,20.50
2023-04-23T12:42:38.868Z,20.34
2023-04-23T12:45:32.881Z,20.08
2023-04-23T12:48:27.862Z,19.86
2023-04-23T12:51:14.895Z,19.68
2023-04-23T12:53:48.008Z,19.51
2023-04-23T12:56:34.926Z,19.44
2023-04-23T12:59:08.409Z,19.41
2023-04-23T13:01:54.911Z,19.34
2023-04-23T13:04:34.920Z,19.10
2023-04-23T13:07:21.897Z,19.12
2023-04-23T13:10:01.895Z,19.00
2023-04-23T13:12:49.898Z,19.06
2023-04-23T13:15:23.493Z,19.10
2023-04-23T13:18:10.856Z,19.13
2023-04-23T13:20:50.889Z,19.17
2023-04-23T13:23:37.958Z,19.12
2023-04-23T13:26:11.088Z,19.07
2023-04-23T13:28:57.915Z,19.04
2023-04-23T13:31:37.970Z,19.08
2023-04-23T13:34:31.908Z,19.06
2023-04-23T13:37:18.930Z,19.04
2023-04-23T13:39:51.996Z,19.03
2023-04-23T13:42:40.913Z,19.01
2023-04-23T13:45:21.926Z,19.01
2023-04-23T13:48:15.893Z,18.91
2023-04-23T13:51:26.037Z,18.81
2023-04-23T13:54:27.839Z,18.64
2023-04-23T13:57:21.925Z,18.53
2023-04-23T14:00:08.913Z,18.52
2023-04-23T14:02:49.042Z,18.48
2023-04-23T14:05:35.905Z,18.42
2023-04-23T14:08:09.351Z,18.36
2023-04-23T14:10:56.033Z,18.37
2023-04-23T14:13:29.049Z,18.38
2023-04-23T14:16:16.484Z,18.34
2023-04-23T14:18:50.008Z,18.40
2023-04-23T14:21:36.912Z,18.38
2023-04-23T14:24:25.078Z,18.41
2023-04-23T14:27:11.970Z,18.44
2023-04-23T14:30:11.975Z,18.47
2023-04-23T14:33:05.981Z,18.53
2023-04-23T14:35:54.019Z,18.49
2023-04-23T14:38:27.052Z,18.50
2023-04-23T14:41:06.975Z,18.45
2023-04-23T14:43:46.939Z,18.41
2023-04-23T14:46:20.143Z,18.41
2023-04-23T14:49:06.953Z,18.34
2023-04-23T14:51:46.955Z,18.34
2023-04-23T14:54:34.042Z,18.32
2023-04-23T14:57:07.059Z,18.34
2023-04-23T14:59:53.937Z,18.34
2023-04-23T15:02:27.563Z,18.32
2023-04-23T15:05:16.955Z,18.34
2023-04-23T15:07:57.967Z,18.32
2023-04-23T15:10:51.956Z,18.30
2023-04-23T15:13:51.964Z,18.29
2023-04-23T15:19:26.949Z,18.30
2023-04-23T15:22:00.150Z,18.26
2023-04-23T15:24:47.001Z,18.22
2023-04-23T15:27:22.017Z,18.21
2023-04-23T15:30:08.986Z,18.19
2023-04-23T15:32:49.016Z,18.13
2023-04-23T15:35:35.994Z,18.05
2023-04-23T15:38:16.983Z,18.02
2023-04-23T15:41:10.989Z,18.01
2023-04-23T15:43:59.975Z,17.98
2023-04-23T15:46:33.091Z,17.92
2023-04-23T15:49:20.024Z,17.89
2023-04-23T15:52:00.982Z,17.82
2023-04-23T15:54:55.010Z,17.77
2023-04-23T15:57:41.988Z,17.73
2023-04-23T16:00:16.950Z,17.70
2023-04-23T16:03:05.121Z,17.68
2023-04-23T16:05:45.978Z,17.64
2023-04-23T16:08:32.987Z,17.59
2023-04-23T16:11:07.483Z,17.54
2023-04-23T16:13:54.019Z,17.47
2023-04-23T16:16:27.208Z,17.44
2023-04-23T16:19:14.110Z,17.41
2023-04-23T16:21:53.997Z,17.36
2023-04-23T16:24:47.983Z,17.33
2023-04-23T16:27:36.007Z,17.27
2023-04-23T16:30:15.985Z,17.23
2023-04-23T16:33:10.067Z,17.14
2023-04-23T16:36:04.004Z,17.10
2023-04-23T16:38:52.051Z,17.03
2023-04-23T16:41:25.170Z,16.95
2023-04-23T16:44:12.018Z,16.91
2023-04-23T16:46:45.274Z,16.84
2023-04-23T16:49:32.019Z,16.79
2023-04-23T16:52:12.057Z,16.75
2023-04-23T16:54:59.015Z,16.67
2023-04-23T16:57:33.186Z,16.56
2023-04-23T17:00:20.034Z,16.51
2023-04-23T17:02:53.282Z,16.45
2023-04-23T17:05:41.035Z,16.35
2023-04-23T17:08:14.168Z,16.23
2023-04-23T17:11:01.085Z,16.10
2023-04-23T17:13:34.843Z,15.98
2023-04-23T17:16:22.055Z,15.83
2023-04-23T17:19:02.021Z,15.70
2023-04-23T17:21:49.102Z,15.59
2023-04-23T17:24:29.068Z,15.48
2023-04-23T17:27:23.037Z,15.33
2023-04-23T17:30:10.067Z,15.21
2023-04-23T17:32:43.284Z,15.04
2023-04-23T17:35:30.020Z,14.93
2023-04-23T17:38:03.341Z,14.79
2023-04-23T17:40:50.040Z,14.67
2023-04-23T17:43:31.028Z,14.56
2023-04-23T17:46:18.166Z,14.48
2023-04-23T17:48:58.030Z,14.34
2023-04-23T17:51:45.042Z,14.15
2023-04-23T17:54:25.042Z,14.03
2023-04-23T17:57:13.084Z,13.89
2023-04-23T17:59:46.201Z,13.73
2023-04-23T18:02:33.153Z,13.61
2023-04-23T18:05:13.038Z,13.52
2023-04-23T18:08:07.046Z,13.45
2023-04-23T18:11:01.065Z,13.36
2023-04-23T18:13:57.045Z,13.30
2023-04-23T18:16:51.150Z,13.21
2023-04-23T18:19:38.056Z,13.16
2023-04-23T18:22:11.149Z,13.07
2023-04-23T18:24:58.051Z,13.02
2023-04-23T18:27:33.441Z,12.91
2023-04-23T18:30:22.071Z,12.82
2023-04-23T18:33:01.387Z,12.75
2023-04-23T18:35:50.069Z,12.66
2023-04-23T18:38:38.554Z,12.54
2023-04-23T18:41:25.050Z,12.42
2023-04-23T18:44:06.072Z,12.31
2023-04-23T18:47:00.076Z,12.24
2023-04-23T18:50:07.131Z,12.20
2023-04-23T18:52:54.095Z,12.16
2023-04-23T18:55:34.178Z,12.09
2023-04-23T18:58:21.081Z,12.03
2023-04-23T19:00:54.150Z,11.98
2023-04-23T19:03:41.234Z,11.93
2023-04-23T19:06:15.992Z,11.84
2023-04-23T19:09:06.158Z,11.79
2023-04-23T19:11:39.260Z,11.74
2023-04-23T19:14:26.069Z,11.62
2023-04-23T19:16:59.448Z,11.52
2023-04-23T19:19:46.088Z,11.42
2023-04-23T19:22:19.471Z,11.34
2023-04-23T19:25:06.140Z,11.21
2023-04-23T19:27:39.174Z,11.11
2023-04-23T19:30:26.126Z,11.03
2023-04-23T19:32:59.273Z,10.95
2023-04-23T19:35:46.118Z,10.89
2023-04-23T19:38:26.100Z,10.84
2023-04-23T19:41:20.100Z,10.76
2023-04-23T19:44:07.112Z,10.69
2023-04-23T19:46:40.314Z,10.63
2023-04-23T19:49:27.132Z,10.58
2023-04-23T19:52:03.396Z,10.56
2023-04-23T19:54:55.172Z,10.50
2023-04-23T19:57:28.330Z,10.43
2023-04-23T20:00:20.128Z,10.37
2023-04-23T20:02:53.400Z,10.30
2023-04-23T20:05:40.097Z,10.23
2023-04-23T20:08:25.930Z,10.17
2023-04-23T20:11:13.140Z,10.14
2023-04-23T20:13:46.256Z,10.10
2023-04-23T20:16:35.181Z,10.04
2023-04-23T20:19:11.300Z,10.03
2023-04-23T20:21:59.122Z,10.00
2023-04-23T20:24:32.237Z,9.95
2023-04-23T20:27:25.132Z,9.92
2023-04-23T20:29:59.249Z,9.87
2023-04-23T20:32:53.302Z,9.84
2023-04-23T20:35:48.210Z,9.80
2023-04-23T20:38:37.101Z,9.77
2023-04-23T20:41:14.360Z,9.74
2023-04-23T20:44:02.121Z,9.71
2023-04-23T20:46:36.921Z,9.69
2023-04-23T20:49:25.175Z,9.64
2023-04-23T20:51:58.321Z,9.63
2023-04-23T20:54:45.119Z,9.60
2023-04-23T20:57:18.257Z,9.58
2023-04-23T21:00:05.141Z,9.56
2023-04-23T21:02:45.258Z,9.53
2023-04-23T21:05:33.169Z,9.47
2023-04-23T21:08:06.352Z,9.40
2023-04-23T21:10:53.258Z,9.38
2023-04-23T21:13:26.286Z,9.34
2023-04-23T21:16:13.266Z,9.32
2023-04-23T21:18:47.438Z,9.28
2023-04-23T21:21:36.161Z,9.24
2023-04-23T21:24:09.292Z,9.18
2023-04-23T21:26:56.165Z,9.14
2023-04-23T21:29:29.261Z,9.09
2023-04-23T21:32:16.166Z,9.05
2023-04-23T21:34:49.288Z,8.98
2023-04-23T21:37:36.153Z,8.94
2023-04-23T21:40:10.458Z,8.90
2023-04-23T21:42:57.140Z,8.85
2023-04-23T21:45:37.160Z,8.78
2023-04-23T21:48:24.174Z,8.71
2023-04-23T21:51:04.232Z,8.68
2023-04-23T21:53:58.221Z,8.65
2023-04-23T21:56:52.173Z,8.63
2023-04-23T21:59:46.183Z,8.58
2023-04-23T22:02:33.304Z,8.54
2023-04-23T22:05:09.300Z,8.51
2023-04-23T22:07:57.231Z,8.48
2023-04-23T22:10:37.178Z,8.47
2023-04-23T22:13:31.163Z,8.46
2023-04-23T22:16:28.258Z,8.45
2023-04-23T22:19:05.261Z,8.45
2023-04-23T22:21:52.242Z,8.44
2023-04-23T22:24:25.311Z,8.42
2023-04-23T22:27:12.166Z,8.38
2023-04-23T22:29:45.417Z,8.36
2023-04-23T22:32:32.193Z,8.36
2023-04-23T22:35:26.213Z,8.35
2023-04-23T22:38:13.188Z,8.34
2023-04-23T22:40:53.165Z,8.32
2023-04-23T22:43:47.191Z,8.29
2023-04-23T22:46:34.278Z,8.27
2023-04-23T22:49:11.279Z,8.25
2023-04-23T22:51:58.203Z,8.24
2023-04-23T22:54:31.361Z,8.22
2023-04-23T22:57:18.211Z,8.14
2023-04-23T22:59:51.296Z,8.10
2023-04-23T23:02:38.300Z,8.03
2023-04-23T23:05:12.288Z,7.99
2023-04-23T23:07:59.161Z,7.93
2023-04-23T23:10:39.193Z,7.85
2023-04-23T23:13:26.211Z,7.82
2023-04-23T23:16:02.356Z,7.77
2023-04-23T23:18:49.192Z,7.73
2023-04-23T23:21:23.276Z,7.69
2023-04-23T23:24:10.193Z,7.65
2023-04-23T23:26:43.294Z,7.61
2023-04-23T23:29:30.203Z,7.59
2023-04-23T23:32:04.322Z,7.55
2023-04-23T23:34:58.183Z,7.50
2023-04-23T23:37:52.230Z,7.46
2023-04-23T23:40:46.194Z,7.40
2023-04-23T23:43:40.232Z,7.34
2023-04-23T23:46:27.236Z,7.30
2023-04-23T23:49:00.355Z,7.26
2023-04-23T23:51:47.201Z,7.21
2023-04-23T23:54:20.512Z,7.19
2023-04-23T23:57:08.206Z,7.17
2023-04-23T23:59:48.205Z,7.16
